Time;durP1;ratioP1;P1;durP2;ratioP2;P2;SDS_P1;SDS_P2;PMS_P1;PMS_P2;Temp;Humidity;BMP_temperature;BMP_pressure;BME280_temperature;BME280_humidity;BME280_pressure;Samples;Min_cycle;Max_cycle;Signal;HPM_P1;HPM_P2
2023/12/02 00:02:06;;;;;;;6.80;2.27;;;;;;;-143.21;49.29;71390.09;5087165;28;20201;-77
2023/12/02 00:04:33;;;;;;;6.73;2.10;;;;;;;-143.21;48.65;71372.25;5085360;28;20208;-77
2023/12/02 00:06:59;;;;;;;3.10;1.87;;;;;;;-143.21;48.26;71396.03;5084949;28;20600;-78
2023/12/02 00:09:27;;;;;;;8.40;1.93;;;;;;;-143.21;47.24;71342.50;5085440;28;20212;-79
2023/12/02 00:11:54;;;;;;;4.77;1.63;;;;;;;-143.21;44.69;71292.94;5086755;28;20209;-77
2023/12/02 00:14:21;;;;;;;6.23;1.80;;;;;;;-143.21;44.49;71310.78;5085755;28;20204;-78
2023/12/02 00:16:48;;;;;;;11.23;2.30;;;;;;;-143.21;44.62;71241.41;5088017;28;20617;-77
2023/12/02 00:19:15;;;;;;;7.53;1.80;;;;;;;-143.21;44.48;71249.34;5087151;28;20201;-77
2023/12/02 00:21:42;;;;;;;4.18;1.75;;;;;;;-143.21;43.74;71233.47;5089239;28;20216;-78
2023/12/02 00:24:09;;;;;;;7.80;2.20;;;;;;;-143.21;44.88;71219.59;5090216;28;20216;-77
2023/12/02 00:26:37;;;;;;;3.63;2.13;;;;;;;-143.21;43.94;71225.53;5085920;28;20659;-77
2023/12/02 00:29:04;;;;;;;7.45;1.80;;;;;;;-143.21;44.19;71227.53;5088866;28;20205;-77
2023/12/02 00:31:31;;;;;;;3.35;1.67;;;;;;;-143.21;44.35;71235.44;5089000;28;20208;-78
2023/12/02 00:33:58;;;;;;;4.22;1.60;;;;;;;-143.21;42.97;71221.56;5090648;28;20204;-78
2023/12/02 00:36:24;;;;;;;4.18;1.50;;;;;;;-143.21;42.50;71223.56;5087802;28;20203;-78
2023/12/02 00:38:51;;;;;;;2.60;1.40;;;;;;;-143.21;41.74;71211.66;5088120;28;20566;-78
2023/12/02 00:41:18;;;;;;;7.10;1.73;;;;;;;-143.21;40.90;71189.84;5088082;28;20208;-78
2023/12/02 00:43:46;;;;;;;6.20;1.75;;;;;;;-143.21;42.43;71177.97;5089653;28;20204;-77
2023/12/02 00:46:13;;;;;;;8.30;1.50;;;;;;;-143.21;42.58;71199.78;5090313;28;20201;-81
2023/12/02 00:48:40;;;;;;;4.35;1.83;;;;;;;-143.21;42.85;71219.59;5088300;28;20543;-78
2023/12/02 00:51:07;;;;;;;8.75;1.80;;;;;;;-143.21;44.80;71239.41;5088312;28;20636;-78
2023/12/02 00:53:34;;;;;;;7.93;2.00;;;;;;;-143.21;44.33;71263.22;5088128;28;20797;-78
2023/12/02 00:56:01;;;;;;;7.03;1.80;;;;;;;-143.21;43.64;71229.50;5090444;28;20298;-78
2023/12/02 00:58:28;;;;;;;4.90;1.77;;;;;;;-143.21;43.67;71253.28;5087467;28;21019;-78
2023/12/02 01:00:56;;;;;;;5.30;1.67;;;;;;;-143.21;43.53;71243.38;5087773;28;20205;-78
2023/12/02 01:03:23;;;;;;;4.57;1.67;;;;;;;-143.21;43.22;71251.31;5088161;28;20577;-78
2023/12/02 01:05:50;;;;;;;7.05;2.03;;;;;;;-143.21;44.25;71257.25;5089152;28;20205;-77
2023/12/02 01:08:16;;;;;;;3.88;1.70;;;;;;;-143.21;41.93;71231.50;5088924;28;20228;-76
2023/12/02 01:10:43;;;;;;;5.10;1.77;;;;;;;-143.21;41.34;71209.69;5087888;28;20591;-77
2023/12/02 01:13:10;;;;;;;5.95;1.80;;;;;;;-143.21;41.03;71187.88;5087975;28;20640;-77
2023/12/02 01:15:37;;;;;;;4.90;1.75;;;;;;;-143.21;41.92;71162.09;5088510;28;20247;-77
2023/12/02 01:18:05;;;;;;;6.32;1.90;;;;;;;-143.21;41.86;71191.84;5089605;28;20197;-77
2023/12/02 01:20:32;;;;;;;3.67;1.75;;;;;;;-143.21;41.84;71201.75;5087837;28;20212;-77
2023/12/02 01:22:59;;;;;;;7.50;1.60;;;;;;;-143.21;40.35;71179.94;5087866;28;20219;-77
2023/12/02 01:25:25;;;;;;;3.08;2.00;;;;;;;-143.21;40.94;71168.06;5086662;28;20212;-78
2023/12/02 01:27:52;;;;;;;3.20;1.58;;;;;;;-143.21;40.01;71154.16;5089178;28;20224;-77
2023/12/02 01:30:18;;;;;;;6.95;2.20;;;;;;;-143.21;39.92;71142.28;5087950;28;20208;-78
2023/12/02 01:32:45;;;;;;;3.15;1.60;;;;;;;-143.21;39.71;71134.34;5087516;28;20205;-76
2023/12/02 01:35:13;;;;;;;3.75;1.70;;;;;;;-143.21;41.28;71168.06;5087614;28;20211;-78
2023/12/02 01:37:40;;;;;;;7.10;2.00;;;;;;;-143.21;42.44;71225.53;5088343;28;20208;-76
2023/12/02 01:40:08;;;;;;;2.70;1.80;;;;;;;-143.21;43.66;71269.16;5089226;28;20207;-77
2023/12/02 01:42:35;;;;;;;8.40;2.30;;;;;;;-143.21;44.86;71281.06;5087314;28;20200;-78
2023/12/02 01:45:02;;;;;;;6.80;2.90;;;;;;;-143.21;45.77;71292.94;5087044;28;20212;-77
2023/12/02 01:47:29;;;;;;;6.13;2.53;;;;;;;-143.21;45.84;71290.97;5087497;28;20259;-77
2023/12/02 01:49:57;;;;;;;7.55;2.58;;;;;;;-143.21;45.46;71292.94;5089011;28;20205;-77
2023/12/02 01:52:25;;;;;;;9.57;2.70;;;;;;;-143.21;45.85;71285.03;5086906;28;20209;-78
2023/12/02 01:54:52;;;;;;;5.17;2.37;;;;;;;-143.21;43.50;71316.75;5085965;28;20215;-78
2023/12/02 01:57:21;;;;;;;4.53;1.60;;;;;;;-143.21;39.48;71217.59;5086186;28;20204;-77
2023/12/02 01:59:54;;;;;;;9.13;1.60;;;;;;;-143.21;42.03;71245.38;5087624;28;20209;-77
2023/12/02 02:02:21;;;;;;;7.00;2.20;;;;;;;-143.21;43.34;71203.72;5089141;28;20220;-77
2023/12/02 02:04:48;;;;;;;7.20;2.43;;;;;;;-143.21;43.47;71237.44;5086032;28;20197;-77
2023/12/02 02:07:15;;;;;;;6.07;2.13;;;;;;;-143.21;41.66;71263.22;5086762;28;20205;-77
2023/12/02 02:09:47;;;;;;;5.67;2.10;;;;;;;-143.21;41.86;71231.50;5086354;28;20204;-77
2023/12/02 02:12:15;;;;;;;6.05;1.95;;;;;;;-143.21;43.13;71255.28;5089260;28;20304;-77
2023/12/02 02:14:41;;;;;;;4.83;2.43;;;;;;;-143.21;44.96;71231.50;5085320;28;20201;-78
2023/12/02 02:17:08;;;;;;;5.73;2.40;;;;;;;-143.21;46.08;71292.94;5086542;28;20224;-78
2023/12/02 02:19:35;;;;;;;4.67;2.70;;;;;;;-143.21;47.27;71288.97;5085550;28;20200;-78
2023/12/02 02:22:04;;;;;;;7.90;2.50;;;;;;;-143.21;49.52;71356.38;5085836;28;20215;-78
2023/12/02 02:24:31;;;;;;;9.23;2.73;;;;;;;-143.21;51.08;71433.72;5085938;28;20304;-77
2023/12/02 02:26:58;;;;;;;7.43;3.60;;;;;;;-143.21;52.31;71473.38;5081345;28;20212;-78
2023/12/02 02:29:25;;;;;;;8.43;3.20;;;;;;;-143.21;52.84;71493.19;5085928;28;20223;-78
2023/12/02 02:31:52;;;;;;;11.87;3.10;;;;;;;-143.21;53.07;71473.38;5086278;28;20220;-78
2023/12/02 02:34:18;;;;;;;7.93;3.23;;;;;;;-143.21;53.59;71489.22;5088897;28;20710;-78
2023/12/02 02:36:46;;;;;;;14.13;3.33;;;;;;;-143.21;53.97;71509.06;5085017;28;20283;-78
2023/12/02 02:39:14;;;;;;;7.97;3.30;;;;;;;-143.21;54.26;71507.06;5085396;28;20205;-77
2023/12/02 02:41:40;;;;;;;5.97;3.17;;;;;;;-143.21;54.64;71505.09;5086379;28;20201;-77
2023/12/02 02:44:07;;;;;;;5.63;2.87;;;;;;;-143.21;54.81;71507.06;5084002;28;20209;-75
2023/12/02 02:46:34;;;;;;;9.00;3.30;;;;;;;-143.21;55.20;71511.03;5088238;28;20193;-75
2023/12/02 02:49:01;;;;;;;7.77;2.93;;;;;;;-143.21;55.33;71530.88;5085731;28;20225;-76
2023/12/02 02:51:29;;;;;;;9.97;3.53;;;;;;;-143.21;55.35;71532.84;5085546;28;20568;-75
2023/12/02 02:53:56;;;;;;;5.70;3.17;;;;;;;-143.21;56.03;71548.72;5085799;28;20243;-77
2023/12/02 02:56:25;;;;;;;6.60;3.10;;;;;;;-143.21;56.42;71554.66;5089086;28;20558;-76
2023/12/02 02:58:51;;;;;;;6.93;2.90;;;;;;;-143.21;56.48;71570.53;5085686;28;20223;-75
2023/12/02 03:01:18;;;;;;;15.07;3.97;;;;;;;-143.21;56.95;71572.50;5085455;28;20668;-75
2023/12/02 03:03:45;;;;;;;10.90;3.10;;;;;;;-143.21;58.83;71635.94;5085414;28;20204;-76
2023/12/02 03:06:12;;;;;;;9.40;3.10;;;;;;;-143.21;60.23;71655.78;5086749;28;20208;-77
2023/12/02 03:08:39;;;;;;;12.97;3.33;;;;;;;-143.21;60.62;71675.59;5087352;28;20220;-76
2023/12/02 03:11:06;;;;;;;5.97;3.33;;;;;;;-143.21;60.76;71675.59;5086188;28;20228;-76
2023/12/02 03:13:34;;;;;;;9.17;3.10;;;;;;;-143.21;61.04;71677.59;5086029;28;20204;-76
2023/12/02 03:16:01;;;;;;;6.63;3.40;;;;;;;-143.21;60.97;71687.50;5085425;28;20236;-75
2023/12/02 03:18:28;;;;;;;9.80;3.53;;;;;;;-143.21;61.28;71681.56;5087698;28;20201;-76
2023/12/02 03:20:54;;;;;;;6.23;3.40;;;;;;;-143.21;61.62;71693.44;5085568;28;20258;-75
2023/12/02 03:23:21;;;;;;;6.57;3.10;;;;;;;-143.21;61.52;71663.72;5085493;28;20200;-75
2023/12/02 03:25:48;;;;;;;12.93;3.47;;;;;;;-143.21;61.32;71699.41;5084511;28;20646;-76
2023/12/02 03:28:15;;;;;;;8.40;3.03;;;;;;;-143.21;61.25;71689.47;5087304;28;20224;-75
2023/12/02 03:30:43;;;;;;;6.90;2.90;;;;;;;-143.21;61.39;71699.41;5085366;28;20215;-75
2023/12/02 03:33:10;;;;;;;12.10;3.30;;;;;;;-143.21;61.52;71693.44;5084807;28;20577;-75
2023/12/02 03:35:37;;;;;;;8.47;2.83;;;;;;;-143.21;61.57;71677.59;5082485;28;20207;-75
2023/12/02 03:38:03;;;;;;;9.53;2.90;;;;;;;-143.21;61.59;71691.47;5086153;28;20204;-75
2023/12/02 03:40:30;;;;;;;10.30;2.90;;;;;;;-143.21;61.42;71693.44;5087897;28;20200;-75
2023/12/02 03:42:57;;;;;;;10.63;3.10;;;;;;;-143.21;62.14;71729.13;5085143;28;20705;-76
2023/12/02 03:45:24;;;;;;;7.07;2.60;;;;;;;-143.21;61.94;71695.44;5085145;28;20609;-75
2023/12/02 03:47:52;;;;;;;10.73;3.10;;;;;;;-143.21;61.69;71719.22;5084983;28;20582;-76
2023/12/02 03:50:19;;;;;;;6.30;2.70;;;;;;;-143.21;60.83;71727.16;5091195;28;20623;-76
2023/12/02 03:52:46;;;;;;;5.83;2.50;;;;;;;-143.21;59.80;71667.66;5089482;28;20208;-76
2023/12/02 03:55:13;;;;;;;6.97;2.77;;;;;;;-143.21;60.66;71673.63;5089953;28;20223;-75
2023/12/02 03:57:40;;;;;;;3.53;2.43;;;;;;;-143.21;60.75;71737.06;5089703;28;20211;-75
2023/12/02 04:00:10;;;;;;;7.83;2.70;;;;;;;-143.21;61.38;71733.09;5087262;28;20648;-76
2023/12/02 04:02:38;;;;;;;7.13;2.90;;;;;;;-143.21;62.23;71735.09;5091038;28;20205;-74
2023/12/02 04:05:10;;;;;;;10.07;2.90;;;;;;;-143.21;61.97;71725.16;5089310;28;20598;-74
2023/12/02 04:07:37;;;;;;;10.53;2.80;;;;;;;-143.21;61.65;71721.22;5086213;28;20188;-75
2023/12/02 04:10:04;;;;;;;11.00;3.30;;;;;;;-143.21;61.60;71727.16;5089271;28;20552;-76
2023/12/02 04:12:31;;;;;;;8.43;2.83;;;;;;;-143.21;60.99;71687.50;5091614;28;20201;-75
2023/12/02 04:14:58;;;;;;;8.17;3.00;;;;;;;-143.21;61.33;71683.53;5088721;28;20257;-77
2023/12/02 04:17:25;;;;;;;11.93;3.10;;;;;;;-143.21;60.99;71691.47;5088940;28;20208;-77
2023/12/02 04:19:52;;;;;;;8.23;2.90;;;;;;;-143.21;61.25;71701.38;5088434;28;20711;-77
2023/12/02 04:22:20;;;;;;;9.03;2.90;;;;;;;-143.21;61.32;71681.56;5090037;28;20292;-78
2023/12/02 04:24:47;;;;;;;7.30;2.90;;;;;;;-143.21;61.43;71677.59;5090407;28;20574;-77
2023/12/02 04:27:14;;;;;;;10.67;2.87;;;;;;;-143.21;61.65;71663.72;5088739;28;20687;-78
2023/12/02 04:29:42;;;;;;;6.83;2.67;;;;;;;-143.21;61.54;71657.75;5089016;28;20224;-76
2023/12/02 04:32:09;;;;;;;4.97;2.93;;;;;;;-143.21;61.75;71681.56;5085527;28;20204;-78
2023/12/02 04:34:36;;;;;;;11.03;2.97;;;;;;;-143.21;61.48;71655.78;5088134;28;20201;-77
2023/12/02 04:37:03;;;;;;;7.50;3.37;;;;;;;-143.21;61.18;71673.63;5088200;28;20205;-76
2023/12/02 04:39:31;;;;;;;9.70;2.83;;;;;;;-143.21;61.54;71661.72;5086327;28;20225;-76
2023/12/02 04:41:57;;;;;;;6.60;2.90;;;;;;;-143.21;62.98;71703.34;5086762;28;20585;-75
2023/12/02 04:44:24;;;;;;;6.93;2.90;;;;;;;-143.21;63.07;71705.34;5088906;28;20207;-75
2023/12/02 04:46:51;;;;;;;5.83;3.23;;;;;;;-143.21;63.99;71717.25;5089017;28;20205;-75
2023/12/02 04:49:18;;;;;;;11.10;3.10;;;;;;;-143.21;64.22;71705.34;5087511;28;20221;-77
2023/12/02 04:51:45;;;;;;;8.77;2.93;;;;;;;-143.21;63.28;71703.34;5087908;28;20204;-77
2023/12/02 04:54:12;;;;;;;7.27;3.00;;;;;;;-143.21;63.48;71701.38;5088199;28;20265;-77
2023/12/02 04:56:40;;;;;;;8.43;3.27;;;;;;;-143.21;63.29;71681.56;5087907;28;20205;-77
2023/12/02 04:59:07;;;;;;;6.67;3.17;;;;;;;-143.21;63.23;71679.56;5086749;28;20216;-77
2023/12/02 05:01:33;;;;;;;8.73;2.93;;;;;;;-143.21;62.97;71693.44;5086779;28;20214;-78
2023/12/02 05:04:00;;;;;;;6.53;2.90;;;;;;;-143.21;62.80;71679.56;5087411;28;20621;-76
2023/12/02 05:06:27;;;;;;;13.30;3.83;;;;;;;-143.21;62.20;71677.59;5090052;28;20208;-78
2023/12/02 05:08:54;;;;;;;9.80;3.40;;;;;;;-143.21;62.20;71673.63;5088308;28;20588;-78
2023/12/02 05:11:22;;;;;;;13.40;3.93;;;;;;;-143.21;62.10;71665.69;5088022;28;20201;-78
2023/12/02 05:13:51;;;;;;;10.97;3.70;;;;;;;-143.21;62.42;71669.66;5087164;28;20207;-78
2023/12/02 05:16:19;;;;;;;9.17;3.30;;;;;;;-143.21;63.07;71701.38;5087632;28;20276;-76
2023/12/02 05:18:46;;;;;;;9.43;3.30;;;;;;;-143.21;63.51;71717.25;5088929;28;20205;-77
2023/12/02 05:21:15;;;;;;;14.70;3.30;;;;;;;-143.21;65.08;71754.91;5086962;28;20201;-77
2023/12/02 05:23:42;;;;;;;7.73;2.37;;;;;;;-143.21;60.23;71715.25;5087079;28;20224;-76
2023/12/02 05:26:09;;;;;;;10.60;3.40;;;;;;;-143.21;59.28;71705.34;5086162;28;20215;-77
2023/12/02 05:28:36;;;;;;;10.17;2.67;;;;;;;-143.21;57.95;71671.63;5089703;28;20221;-77
2023/12/02 05:31:05;;;;;;;7.53;3.50;;;;;;;-143.21;58.42;71635.94;5088201;28;20196;-76
2023/12/02 05:33:32;;;;;;;10.27;3.10;;;;;;;-143.21;57.66;71628.00;5087123;28;20291;-76
2023/12/02 05:35:59;;;;;;;12.13;3.57;;;;;;;-143.21;58.28;71606.22;5086161;28;20209;-77
2023/12/02 05:38:26;;;;;;;7.60;3.27;;;;;;;-143.21;58.05;71600.25;5087331;28;20212;-76
2023/12/02 05:40:52;;;;;;;8.63;3.30;;;;;;;-143.21;58.55;71628.00;5088872;28;20211;-77
2023/12/02 05:43:19;;;;;;;9.60;3.37;;;;;;;-143.21;57.95;71620.09;5087303;28;20283;-77
2023/12/02 05:45:46;;;;;;;7.70;3.40;;;;;;;-143.21;58.12;71608.19;5087062;28;20196;-77
2023/12/02 05:48:14;;;;;;;12.20;3.20;;;;;;;-143.21;58.55;71624.06;5086838;28;20213;-78
2023/12/02 05:50:41;;;;;;;9.30;3.20;;;;;;;-143.21;58.50;71610.16;5089496;28;20637;-78
2023/12/02 05:53:08;;;;;;;5.80;3.03;;;;;;;-143.21;58.92;71600.25;5087030;28;20674;-78
2023/12/02 05:55:35;;;;;;;7.50;3.17;;;;;;;-143.21;58.57;71604.22;5084065;28;20208;-78
2023/12/02 05:58:01;;;;;;;8.87;3.70;;;;;;;-143.21;58.79;71602.25;5086830;28;20213;-78
2023/12/02 06:00:28;;;;;;;10.73;3.50;;;;;;;-143.21;59.00;71600.25;5088075;28;20212;-78
2023/12/02 06:02:55;;;;;;;10.27;3.30;;;;;;;-143.21;59.26;71600.25;5086536;28;20204;-77
2023/12/02 06:05:24;;;;;;;10.93;3.50;;;;;;;-143.21;60.05;71622.06;5084814;28;20200;-77
2023/12/02 06:07:51;;;;;;;12.33;3.70;;;;;;;-143.21;60.51;71643.88;5085430;28;20212;-78
2023/12/02 06:10:29;;;;;;;10.83;3.30;;;;;;;-143.21;61.34;71701.38;5086856;28;20275;-77
2023/12/02 06:12:56;;;;;;;5.57;3.30;;;;;;;-143.21;61.91;71707.31;5085269;28;20193;-77
2023/12/02 06:15:22;;;;;;;11.93;3.57;;;;;;;-143.21;61.58;71671.63;5083657;28;20232;-77
2023/12/02 06:17:49;;;;;;;11.73;3.23;;;;;;;-143.21;62.07;71703.34;5078553;28;20201;-78
2023/12/02 06:20:16;;;;;;;10.83;3.33;;;;;;;-143.21;62.00;71675.59;5081665;28;20193;-77
2023/12/02 06:22:44;;;;;;;10.67;4.53;;;;;;;-143.21;61.95;71695.44;5083055;28;20203;-78
2023/12/02 06:25:11;;;;;;;7.20;3.40;;;;;;;-143.21;61.50;71687.50;5083829;28;20197;-77
2023/12/02 06:27:38;;;;;;;7.30;3.17;;;;;;;-143.21;61.59;71669.66;5079865;28;20189;-78
2023/12/02 06:30:06;;;;;;;11.67;3.53;;;;;;;-143.21;61.37;71675.59;5079619;28;20228;-79
2023/12/02 06:32:37;;;;;;;12.43;3.47;;;;;;;-143.21;61.65;71675.59;5087562;28;20209;-79
2023/12/02 06:35:04;;;;;;;9.60;3.37;;;;;;;-143.21;61.33;71691.47;5087650;28;20202;-78
2023/12/02 06:37:31;;;;;;;8.07;3.63;;;;;;;-143.21;60.92;71645.88;5081229;28;20227;-78
2023/12/02 06:39:59;;;;;;;10.87;3.43;;;;;;;-143.21;61.14;71681.56;5080859;28;20212;-78
2023/12/02 06:42:29;;;;;;;9.77;3.20;;;;;;;-143.21;61.07;71645.88;5084293;28;20200;-76
2023/12/02 06:44:59;;;;;;;9.87;3.73;;;;;;;-143.21;61.77;71673.63;5083873;28;20213;-77
2023/12/02 06:47:25;;;;;;;8.93;3.20;;;;;;;-143.21;61.68;71701.38;5084378;28;20213;-76
2023/12/02 06:49:59;;;;;;;10.67;3.90;;;;;;;-143.21;61.42;71689.47;5085648;28;20595;-77
2023/12/02 06:52:26;;;;;;;10.77;4.17;;;;;;;-143.21;61.73;71727.16;5083450;28;20197;-78
2023/12/02 06:54:52;;;;;;;8.67;3.73;;;;;;;-143.21;61.86;71679.56;5083612;28;20205;-76
2023/12/02 06:57:21;;;;;;;11.33;3.60;;;;;;;-143.21;61.78;71675.59;5082303;28;20660;-77
2023/12/02 06:59:48;;;;;;;8.17;3.93;;;;;;;-143.21;62.24;71687.50;5086370;28;20184;-78
2023/12/02 07:02:14;;;;;;;9.30;3.73;;;;;;;-143.21;63.49;71739.06;5080548;28;20204;-78
2023/12/02 07:04:41;;;;;;;6.83;3.40;;;;;;;-143.21;63.90;71754.91;5077376;28;20213;-75
2023/12/02 07:07:09;;;;;;;14.73;3.97;;;;;;;-143.21;62.99;71715.25;5084540;28;20209;-76
2023/12/02 07:09:36;;;;;;;10.73;3.43;;;;;;;-143.21;62.77;71733.09;5081397;28;20216;-76
2023/12/02 07:12:03;;;;;;;12.30;3.90;;;;;;;-143.21;62.69;71687.50;5077633;28;20681;-76
2023/12/02 07:14:32;;;;;;;13.33;3.87;;;;;;;-143.21;62.75;71683.53;5080891;28;20201;-76
2023/12/02 07:16:58;;;;;;;6.40;3.70;;;;;;;-143.21;62.08;71705.34;5081408;28;20854;-76
2023/12/02 07:19:25;;;;;;;12.47;3.57;;;;;;;-143.21;61.28;71661.72;5082664;28;20738;-76
2023/12/02 07:21:52;;;;;;;12.73;3.63;;;;;;;-143.21;61.38;71659.75;5086616;28;20246;-83
2023/12/02 07:24:20;;;;;;;12.07;3.67;;;;;;;-143.21;61.16;71667.66;5084763;28;20197;-76
2023/12/02 07:26:50;;;;;;;13.00;3.67;;;;;;;-143.21;61.73;71721.22;5084139;28;20615;-76
2023/12/02 07:29:24;;;;;;;7.03;3.80;;;;;;;-143.21;62.44;71725.16;5086042;28;20352;-77
2023/12/02 07:31:52;;;;;;;8.93;3.30;;;;;;;-143.21;61.84;71733.09;5086123;28;20278;-76
2023/12/02 07:34:25;;;;;;;13.33;3.80;;;;;;;-143.21;61.39;71715.25;5085487;28;20197;-76
2023/12/02 07:36:52;;;;;;;16.30;4.00;;;;;;;-143.21;60.99;71709.31;5083374;28;20201;-77
2023/12/02 07:39:19;;;;;;;10.03;3.57;;;;;;;-143.21;60.62;71685.50;5085534;28;20275;-79
2023/12/02 07:41:53;;;;;;;17.07;3.90;;;;;;;-143.21;60.68;71655.78;5086301;28;20205;-77
2023/12/02 07:44:20;;;;;;;11.93;3.23;;;;;;;-143.21;59.39;71679.56;5112753;27;20196;-78
2023/12/02 07:46:47;;;;;;;12.00;3.50;;;;;;;-143.21;59.16;71633.97;5085802;28;20193;-79
2023/12/02 07:49:22;;;;;;;7.83;3.53;;;;;;;-143.21;58.46;71643.88;5083873;28;20227;-78
2023/12/02 07:51:51;;;;;;;13.50;3.80;;;;;;;-143.21;58.69;71635.94;5081338;28;20208;-78
2023/12/02 07:54:18;;;;;;;6.67;3.27;;;;;;;-143.21;58.58;71602.25;5085445;28;20192;-77
2023/12/02 07:56:44;;;;;;;7.47;3.17;;;;;;;-143.21;58.30;71639.91;5085275;28;20209;-79
2023/12/02 07:59:11;;;;;;;9.30;3.53;;;;;;;-143.21;58.49;71588.38;5081256;28;20193;-77
2023/12/02 08:01:38;;;;;;;12.43;3.67;;;;;;;-143.21;58.11;71592.31;5085039;28;20201;-77
2023/12/02 08:04:05;;;;;;;9.67;3.20;;;;;;;-143.21;58.39;71620.09;5085800;28;20208;-87
2023/12/02 08:06:33;;;;;;;10.67;3.40;;;;;;;-143.21;58.33;71614.13;5084690;28;20579;-76
2023/12/02 08:09:03;;;;;;;11.87;3.70;;;;;;;-143.21;58.47;71610.16;5084566;28;20210;-77
2023/12/02 08:11:31;;;;;;;9.13;3.60;;;;;;;-143.21;58.02;71620.09;5085013;28;20228;-75
2023/12/02 08:13:59;;;;;;;8.97;3.93;;;;;;;-143.21;57.93;71608.19;5085652;28;20300;-76
2023/12/02 08:16:26;;;;;;;11.03;4.33;;;;;;;-143.21;58.29;71610.16;5078941;28;20239;-76
2023/12/02 08:18:55;;;;;;;11.47;3.87;;;;;;;-143.21;58.00;71610.16;5084435;28;20189;-76
2023/12/02 08:21:25;;;;;;;13.53;4.40;;;;;;;-143.21;57.94;71596.28;5076897;28;20241;-77
2023/12/02 08:23:53;;;;;;;16.53;4.63;;;;;;;-143.21;57.94;71620.09;5081959;28;20251;-84
2023/12/02 08:26:20;;;;;;;14.47;5.63;;;;;;;-143.21;58.00;71562.59;5077748;28;20205;-75
2023/12/02 08:28:48;;;;;;;12.37;5.20;;;;;;;-143.21;57.79;71578.44;5081211;28;20227;-76
2023/12/02 08:31:15;;;;;;;13.20;4.80;;;;;;;-143.21;57.16;71576.47;5077654;28;20587;-76
2023/12/02 08:33:42;;;;;;;12.87;5.13;;;;;;;-143.21;57.40;71594.31;5077961;28;20192;-77
2023/12/02 08:36:10;;;;;;;14.80;5.40;;;;;;;-143.21;56.08;71572.50;5081858;28;20198;-76
2023/12/02 08:38:36;;;;;;;14.93;5.20;;;;;;;-143.21;56.55;71554.66;5084837;28;20200;-76
2023/12/02 08:41:05;;;;;;;10.30;4.50;;;;;;;-143.21;56.86;71578.44;5085188;28;20193;-76
2023/12/02 08:43:32;;;;;;;14.07;4.80;;;;;;;-143.21;57.40;71616.13;5087936;28;20635;-78
2023/12/02 08:45:59;;;;;;;8.87;3.93;;;;;;;-143.21;57.87;71600.25;5086449;28;20200;-76
2023/12/02 08:48:27;;;;;;;15.07;4.60;;;;;;;-143.21;57.79;71596.28;5088222;28;20212;-81
2023/12/02 08:50:54;;;;;;;12.03;4.13;;;;;;;-143.21;58.20;71598.28;5086035;28;20223;-76
2023/12/02 08:53:23;;;;;;;15.63;4.10;;;;;;;-143.21;58.26;71602.25;5086199;28;20193;-77
2023/12/02 08:55:52;;;;;;;10.73;4.70;;;;;;;-143.21;58.08;71582.41;5086423;28;20204;-84
2023/12/02 08:58:21;;;;;;;12.63;4.13;;;;;;;-143.21;58.11;71596.28;5088645;28;20280;-85
2023/12/02 09:00:48;;;;;;;17.33;4.20;;;;;;;-143.21;57.32;71586.38;5090940;28;20281;-84
2023/12/02 09:03:15;;;;;;;10.30;5.17;;;;;;;-143.21;57.32;71576.47;5089846;28;20219;-80
2023/12/02 09:05:42;;;;;;;11.97;4.07;;;;;;;-143.21;57.81;71554.66;5089849;28;20189;-84
2023/12/02 09:08:09;;;;;;;12.43;4.13;;;;;;;-143.21;57.74;71540.78;5088179;28;20196;-83
2023/12/02 09:10:36;;;;;;;13.50;4.50;;;;;;;-143.21;57.20;71558.63;5089136;28;20251;-79
2023/12/02 09:13:07;;;;;;;11.50;4.40;;;;;;;-143.21;56.82;71562.59;5091816;28;20204;-83
2023/12/02 09:15:42;;;;;;;13.63;4.50;;;;;;;-143.21;56.98;71556.63;5090973;28;20237;-83
2023/12/02 09:18:11;;;;;;;10.87;4.40;;;;;;;-143.21;57.67;71530.88;5088021;28;20283;-84
2023/12/02 09:20:46;;;;;;;17.83;5.43;;;;;;;-143.21;57.49;71532.84;5090170;28;20201;-83
2023/12/02 09:23:15;;;;;;;16.30;5.27;;;;;;;-143.21;57.07;71518.97;5089197;28;20200;-84
2023/12/02 09:25:43;;;;;;;14.23;5.80;;;;;;;-143.21;56.66;71489.22;5091983;28;20204;-84
2023/12/02 09:28:15;;;;;;;21.27;6.73;;;;;;;-143.21;56.61;71477.34;5091246;28;20259;-84
2023/12/02 09:30:51;;;;;;;20.73;5.80;;;;;;;-143.21;55.95;71459.47;5092262;28;20236;-88
2023/12/02 09:33:18;;;;;;;17.03;5.10;;;;;;;-143.21;56.02;71433.72;5091101;28;20210;-83
2023/12/02 09:35:46;;;;;;;16.67;5.00;;;;;;;-143.21;55.60;71407.94;5091841;28;20672;-80
2023/12/02 09:38:16;;;;;;;7.40;4.00;;;;;;;-143.21;54.59;71402.00;5091170;28;20234;-82
2023/12/02 09:41:21;;;;;;;10.90;4.30;;;;;;;-143.21;53.47;71402.00;5092780;28;20203;-89
2023/12/02 09:44:04;;;;;;;16.17;4.80;;;;;;;-143.21;53.35;71370.28;5093015;28;20196;-87
2023/12/02 09:46:37;;;;;;;17.13;4.40;;;;;;;-143.21;53.14;71338.53;5089016;28;20204;-87
2023/12/02 09:49:42;;;;;;;12.73;4.50;;;;;;;-143.21;52.20;71328.63;5091255;28;20288;-86
2023/12/02 09:52:26;;;;;;;13.60;4.00;;;;;;;-143.21;51.67;71296.91;5056614;28;20193;-83
2023/12/02 09:54:59;;;;;;;10.20;4.03;;;;;;;-143.21;51.67;71219.59;5091084;28;20203;-84
2023/12/02 09:57:34;;;;;;;13.10;3.90;;;;;;;-143.21;48.21;71086.75;5092370;28;20666;-86
2023/12/02 10:00:09;;;;;;;12.57;4.53;;;;;;;-143.21;45.08;70876.63;5093677;28;20200;-88
2023/12/02 10:02:47;;;;;;;15.02;5.28;;;;;;;-143.21;41.80;70650.66;5096641;28;20196;-85
2023/12/02 10:05:16;;;;;;;13.02;4.10;;;;;;;-143.21;39.18;70500.00;5098424;28;20246;-86
2023/12/02 10:07:55;;;;;;;13.15;4.40;;;;;;;-143.21;37.65;70408.84;5097585;28;20200;-86
2023/12/02 10:10:29;;;;;;;17.67;5.72;;;;;;;-143.21;37.13;70396.94;5098323;28;20231;-87
2023/12/02 10:13:07;;;;;;;16.02;6.10;;;;;;;-143.21;37.00;70438.56;5096348;28;20218;-86
2023/12/02 10:15:37;;;;;;;17.65;6.40;;;;;;;-143.21;36.59;70414.78;5093390;28;20258;-86
2023/12/02 10:18:12;;;;;;;14.55;5.50;;;;;;;-143.21;37.04;70460.38;5091784;28;20200;-85
2023/12/02 10:20:41;;;;;;;13.13;4.93;;;;;;;-143.21;37.54;70533.72;5094966;28;20558;-85
2023/12/02 10:23:18;;;;;;;13.38;4.93;;;;;;;-143.21;38.64;70634.81;5092580;28;20197;-85
2023/12/02 10:25:57;;;;;;;15.15;4.95;;;;;;;-143.21;40.13;70751.75;5093941;28;20574;-86
2023/12/02 10:28:30;;;;;;;13.70;5.15;;;;;;;-143.21;40.98;70789.41;5092485;28;20628;-85
2023/12/02 10:31:05;;;;;;;17.23;5.38;;;;;;;-143.21;41.67;70844.91;5092066;28;20203;-82
2023/12/02 10:33:40;;;;;;;16.85;5.30;;;;;;;-143.21;41.87;70862.75;5088024;28;20223;-78
2023/12/02 10:36:11;;;;;;;12.05;5.28;;;;;;;-143.21;42.42;70904.38;5084123;28;20251;-77
2023/12/02 10:39:02;;;;;;;16.50;5.60;;;;;;;-143.21;42.35;70940.06;5089184;28;20201;-78
2023/12/02 10:41:41;;;;;;;16.88;5.10;;;;;;;-143.21;42.67;70963.84;5087397;28;20207;-77
2023/12/02 10:44:09;;;;;;;16.67;5.57;;;;;;;-143.21;42.80;71011.44;5084225;28;20205;-77
2023/12/02 10:46:39;;;;;;;18.95;5.43;;;;;;;-143.21;42.49;71011.44;5083465;28;20205;-78
2023/12/02 10:49:08;;;;;;;23.08;6.25;;;;;;;-143.21;43.15;71037.22;5087106;28;20209;-78
2023/12/02 10:51:40;;;;;;;22.63;6.35;;;;;;;-143.21;44.42;71061.00;5085988;28;20307;-79
2023/12/02 10:54:08;;;;;;;22.73;6.05;;;;;;;-143.21;44.42;71080.81;5087226;28;20663;-78
2023/12/02 10:56:39;;;;;;;18.08;5.90;;;;;;;-143.21;44.78;71096.69;5086551;28;20569;-78
2023/12/02 10:59:07;;;;;;;16.55;5.93;;;;;;;-143.21;44.75;71098.66;5086089;28;20204;-79
2023/12/02 11:01:38;;;;;;;21.40;4.72;;;;;;;-143.21;43.59;71102.63;5086830;28;20299;-78
2023/12/02 11:04:15;;;;;;;13.10;4.15;;;;;;;-143.21;43.72;71122.44;5089096;28;20232;-79
2023/12/02 11:06:50;;;;;;;19.40;4.97;;;;;;;-143.21;43.58;71120.47;5086167;28;20669;-77
2023/12/02 11:09:24;;;;;;;16.90;4.03;;;;;;;-143.21;43.46;71118.50;5086424;28;20223;-78
2023/12/02 11:12:00;;;;;;;15.55;4.63;;;;;;;-143.21;43.83;71116.50;5085966;28;20221;-78
2023/12/02 11:14:35;;;;;;;14.25;4.40;;;;;;;-143.21;42.85;71122.44;5085541;28;20212;-77
2023/12/02 11:17:10;;;;;;;17.97;5.17;;;;;;;-143.21;42.36;71112.53;5086924;28;20801;-77
2023/12/02 11:19:54;;;;;;;13.15;4.65;;;;;;;-143.21;42.65;71114.53;5087847;28;20214;-79
2023/12/02 11:22:41;;;;;;;14.18;5.10;;;;;;;-143.21;42.99;71108.56;5084699;28;20215;-78